Etusivu
METAR-TAF:

METAR-TAF

Lentoasemat :

Boise, Idaho, Yhdysvallat

Leveyspiiri: 43-34-00N, Pituuspiiri: 116-14-26W, korkeus merenpinnasta: 871 m

Tämänhetkinen sää

Tämä raportti tehtiin 12 minuuttia sitten, kello 19.53 UTC
tyyntä
Lämpötila 3°C
Kosteus 44%
Ilmanpaine 1032 hPa
Näkyvyys: 16.1 km
selkeää

METAR: KBOI 031953Z 00000KT 10SM CLR 03/M08 A3047 RMK AO2 SLP340 T00281078

Aika: 13:05 (20:05 UTC)

Sääennuste

Tämä raportti tehtiin 2 tuntia ja 35 minuuttia sitten, kello 17.30 UTC
Ennuste voimassa 03. päivästä klo 18 UTC - 04. päivään klo 18 UTC
Tuuli 7 kn kaakosta
Näkyvyys: 10 km
selkeää
From 03. päivästä klo 2100 UTC
Tuuli 5 kn eri suunnista
Näkyvyys: 10 km
selkeää

TAF: KBOI 031730Z 0318/0418 14007KT P6SM SKC FM032100 VRB05KT P6SM SKC

Säähavainnot ja -ennusteet yli 4000 lentoasemalta (METAR- ja TAF-raportit).

Käytössä olevat sääasemat on merkitty karttaan keltaisilla ja punaisilla pisteillä.

Aseta hiiri pisteen päälle nähdäksesi sääaseman nimen.

Klikkaa sitten nähdäksesi säähavainnot ja -ennusteet.

Kartan vaihtaminen: klikkaa mustalla rastilla varustettuja vihreitä pisteitä, niin voit zoomata sisään; viivalla varustettua vihreää pistettä, niin voit zoomata ulos tai vihreitä nuolia, niin pääset viereisille kartoille.


METAR-TAF: